Time;durP1;ratioP1;P1;durP2;ratioP2;P2;SDS_P1;SDS_P2;PMS_P1;PMS_P2;Temp;Humidity;BMP_temperature;BMP_pressure;BME280_temperature;BME280_humidity;BME280_pressure;Samples;Min_cycle;Max_cycle;Signal;HPM_P1;HPM_P2
2022/06/24 00:06:47;;;;;;;12.45;4.90;;;21.50;99.90;;;;;;6741403;88;20276;-80
2022/06/24 00:17:06;;;;;;;12.68;4.50;;;20.80;99.90;;;;;;6732711;88;20207;-79
2022/06/24 00:27:24;;;;;;;9.60;4.62;;;20.30;99.90;;;;;;6730221;88;20268;-79
2022/06/24 00:37:29;;;;;;;10.45;3.80;;;20.20;99.90;;;;;;6726675;88;20205;-79
2022/06/24 00:47:31;;;;;;;6.12;2.90;;;20.20;99.90;;;;;;6718474;88;21421;-79
2022/06/24 00:57:35;;;;;;;8.32;2.70;;;20.00;99.90;;;;;;6723844;88;20181;-79
2022/06/24 01:07:38;;;;;;;9.07;2.67;;;19.90;99.90;;;;;;6725583;88;20203;-79
2022/06/24 01:17:39;;;;;;;8.18;2.80;;;19.60;99.90;;;;;;6722261;88;20285;-81
2022/06/24 01:27:40;;;;;;;8.15;2.65;;;19.70;99.90;;;;;;6713279;88;20185;-78
2022/06/24 01:37:41;;;;;;;9.60;2.87;;;19.90;99.90;;;;;;6717950;88;20216;-78
2022/06/24 01:47:41;;;;;;;7.30;2.62;;;19.60;99.90;;;;;;6723510;88;20213;-79
2022/06/24 01:57:42;;;;;;;7.50;2.50;;;19.80;99.90;;;;;;6724536;88;20715;-79
2022/06/24 02:07:42;;;;;;;6.22;2.65;;;19.50;99.90;;;;;;6721620;88;20223;-80
2022/06/24 02:17:43;;;;;;;9.50;3.03;;;19.30;99.90;;;;;;6719047;88;20549;-79
2022/06/24 02:27:45;;;;;;;8.90;2.90;;;19.30;99.90;;;;;;6718712;88;20364;-78
2022/06/24 02:37:45;;;;;;;6.35;2.70;;;19.40;99.90;;;;;;6718095;88;20547;-78
2022/06/24 02:47:46;;;;;;;5.80;2.58;;;19.70;99.90;;;;;;6715320;88;20277;-78
2022/06/24 02:57:46;;;;;;;7.50;3.10;;;19.90;99.90;;;;;;6711709;88;20215;-78
2022/06/24 03:07:47;;;;;;;8.45;3.08;;;19.60;99.90;;;;;;6721605;88;20186;-78
2022/06/24 03:17:47;;;;;;;12.63;3.28;;;19.60;99.90;;;;;;6716654;88;20205;-79
2022/06/24 03:27:48;;;;;;;8.50;2.90;;;19.60;99.90;;;;;;6723508;88;20801;-78
2022/06/24 03:37:48;;;;;;;8.50;2.40;;;19.60;99.90;;;;;;6720626;88;20294;-77
2022/06/24 03:47:49;;;;;;;7.53;3.05;;;19.80;99.90;;;;;;6718747;88;20271;-78
2022/06/24 03:57:51;;;;;;;8.27;2.67;;;19.90;99.90;;;;;;6719886;88;20194;-78
2022/06/24 04:07:51;;;;;;;6.32;2.37;;;19.70;99.90;;;;;;6718252;88;20251;-78
2022/06/24 04:17:52;;;;;;;6.45;2.10;;;19.70;99.90;;;;;;6720342;88;20312;-78
2022/06/24 04:27:53;;;;;;;5.30;2.00;;;19.50;99.90;;;;;;6719796;88;20197;-78
2022/06/24 04:37:53;;;;;;;5.78;2.03;;;19.50;99.90;;;;;;6720579;88;20251;-79
2022/06/24 04:47:54;;;;;;;7.40;2.20;;;19.50;99.90;;;;;;6721647;88;20767;-78
2022/06/24 04:57:55;;;;;;;5.53;2.00;;;19.40;99.90;;;;;;6725464;88;20629;-79
2022/06/24 05:07:55;;;;;;;3.80;2.15;;;19.40;99.90;;;;;;6728885;88;20256;-79
2022/06/24 05:17:56;;;;;;;4.05;1.92;;;19.20;99.90;;;;;;6727921;88;20802;-79
2022/06/24 05:27:56;;;;;;;5.55;2.10;;;19.10;99.90;;;;;;6723728;88;20230;-79
2022/06/24 05:37:57;;;;;;;5.07;2.10;;;19.10;99.90;;;;;;6716943;88;20169;-79
2022/06/24 05:47:58;;;;;;;7.07;2.35;;;19.20;99.90;;;;;;6719110;88;20642;-78
2022/06/24 05:57:58;;;;;;;4.20;2.10;;;19.30;99.90;;;;;;6725736;88;20273;-79
2022/06/24 06:07:59;;;;;;;5.60;1.98;;;19.40;99.90;;;;;;6731104;88;20190;-80
2022/06/24 06:18:01;;;;;;;9.60;2.23;;;19.60;99.90;;;;;;6724637;88;20237;-80
2022/06/24 06:28:02;;;;;;;7.57;2.05;;;19.60;99.90;;;;;;6723359;88;20186;-79
2022/06/24 06:38:02;;;;;;;7.28;2.72;;;19.90;99.90;;;;;;6724129;88;20220;-80
2022/06/24 06:48:04;;;;;;;6.53;2.22;;;20.10;99.90;;;;;;6723624;88;20185;-80
2022/06/24 06:58:05;;;;;;;4.70;2.33;;;20.30;99.90;;;;;;6717436;88;20246;-79
2022/06/24 07:18:08;;;;;;;5.13;1.90;;;21.70;99.90;;;;;;6743233;88;20320;-83
2022/06/24 07:28:09;;;;;;;6.43;2.17;;;22.80;99.90;;;;;;6738262;88;21184;-80
2022/06/24 07:38:09;;;;;;;5.87;2.30;;;21.80;99.90;;;;;;6746330;88;20223;-83
2022/06/24 07:48:10;;;;;;;5.32;1.90;;;21.60;99.90;;;;;;6741926;88;20180;-82
2022/06/24 07:58:11;;;;;;;3.17;1.52;;;21.70;99.90;;;;;;6740884;88;20283;-83
2022/06/24 08:08:12;;;;;;;2.33;1.50;;;20.90;99.90;;;;;;6739245;88;20243;-82
2022/06/24 08:18:13;;;;;;;4.72;1.80;;;19.60;99.90;;;;;;6741656;88;20192;-81
2022/06/24 08:28:13;;;;;;;1.95;1.50;;;18.70;99.90;;;;;;6740780;88;20324;-81
2022/06/24 08:38:16;;;;;;;4.03;1.75;;;18.70;99.90;;;;;;6735703;88;20265;-81
2022/06/24 08:48:17;;;;;;;2.87;1.37;;;18.80;99.90;;;;;;6737679;88;20269;-82
2022/06/24 08:58:19;;;;;;;2.83;1.48;;;19.10;99.90;;;;;;6739007;88;20204;-82
2022/06/24 09:08:20;;;;;;;2.65;1.50;;;19.50;99.90;;;;;;6735648;88;20200;-82
2022/06/24 09:18:24;;;;;;;3.97;1.52;;;20.60;99.90;;;;;;6740472;88;20767;-81
2022/06/24 09:28:30;;;;;;;3.60;1.55;;;21.40;99.90;;;;;;6722749;88;20157;-83
2022/06/24 09:38:30;;;;;;;3.22;1.42;;;22.20;99.90;;;;;;6731105;88;20535;-82
2022/06/24 09:48:34;;;;;;;2.15;1.15;;;24.20;99.90;;;;;;6727972;88;20246;-84
2022/06/24 09:58:43;;;;;;;2.62;1.20;;;24.90;99.90;;;;;;6733455;88;20259;-84
2022/06/24 10:08:44;;;;;;;2.28;1.35;;;25.60;99.90;;;;;;6732107;88;20467;-84
2022/06/24 10:18:49;;;;;;;3.10;1.30;;;26.10;99.90;;;;;;6731884;88;20220;-82
2022/06/24 10:29:04;;;;;;;2.90;1.30;;;26.40;99.90;;;;;;6729338;88;20178;-83
2022/06/24 10:39:17;;;;;;;2.03;1.45;;;25.40;99.90;;;;;;6711780;88;20241;-85
2022/06/24 10:49:17;;;;;;;2.47;1.30;;;27.50;99.90;;;;;;6712840;88;20171;-84
2022/06/24 10:59:20;;;;;;;3.53;1.30;;;28.30;99.90;;;;;;6711832;88;20263;-84
2022/06/24 11:09:20;;;;;;;2.50;1.23;;;27.60;99.90;;;;;;6727195;88;20213;-85
2022/06/24 11:19:21;;;;;;;3.08;1.20;;;29.00;99.90;;;;;;6730102;88;21159;-85
2022/06/24 11:29:23;;;;;;;3.50;1.20;;;28.70;99.90;;;;;;6728748;88;20232;-84
2022/06/24 11:39:23;;;;;;;2.17;1.23;;;30.30;98.80;;;;;;6705393;88;20187;-83
2022/06/24 11:49:25;;;;;;;2.15;1.20;;;30.70;98.90;;;;;;6704015;88;20323;-82
2022/06/24 11:59:26;;;;;;;2.95;1.30;;;31.10;96.20;;;;;;6703832;88;20206;-84
2022/06/24 12:09:27;;;;;;;2.83;1.20;;;30.00;95.90;;;;;;6687282;89;20199;-82
2022/06/24 12:19:29;;;;;;;3.40;1.20;;;29.30;98.30;;;;;;6683127;89;20179;-84
2022/06/24 12:29:33;;;;;;;2.33;1.50;;;29.30;99.90;;;;;;6687430;89;20287;-82
2022/06/24 12:39:36;;;;;;;2.40;1.35;;;29.20;99.60;;;;;;6711806;88;20227;-82
2022/06/24 12:59:59;;;;;;;2.35;1.60;;;27.10;99.90;;;;;;6718950;88;20223;-81
2022/06/24 13:20:05;;;;;;;7.00;3.17;;;24.70;99.90;;;;;;6745843;88;20733;-81
2022/06/24 13:30:09;;;;;;;6.57;2.50;;;21.40;99.90;;;;;;6720796;88;20759;-80
2022/06/24 13:40:10;;;;;;;6.33;2.50;;;20.90;99.90;;;;;;6721809;88;20316;-79
2022/06/24 13:50:10;;;;;;;3.97;2.08;;;21.40;99.90;;;;;;6708111;88;20659;-80
2022/06/24 14:00:11;;;;;;;2.83;1.73;;;23.10;99.90;;;;;;6715121;88;20245;-80
2022/06/24 14:10:12;;;;;;;4.07;1.65;;;24.10;99.90;;;;;;6708588;88;20193;-81
2022/06/24 14:20:13;;;;;;;6.00;1.70;;;24.80;99.90;;;;;;6713556;88;20333;-80
2022/06/24 14:30:13;;;;;;;2.92;1.75;;;25.30;99.90;;;;;;6732637;88;20726;-79
2022/06/24 14:40:16;;;;;;;3.03;1.60;;;24.90;99.90;;;;;;6730718;88;20287;-80
2022/06/24 14:50:16;;;;;;;2.47;1.73;;;24.40;99.90;;;;;;6728714;88;20236;-80
2022/06/24 15:00:17;;;;;;;6.05;2.30;;;23.90;99.90;;;;;;6718879;88;20217;-80
2022/06/24 15:10:18;;;;;;;4.12;1.90;;;23.50;99.90;;;;;;6729985;88;20252;-81
2022/06/24 15:20:18;;;;;;;3.05;2.03;;;22.70;99.90;;;;;;6734168;88;20199;-79
2022/06/24 15:30:19;;;;;;;5.18;2.45;;;22.00;99.90;;;;;;6727746;88;20641;-79
2022/06/24 15:40:21;;;;;;;3.05;2.33;;;21.70;99.90;;;;;;6728976;88;20219;-80
2022/06/24 15:50:22;;;;;;;3.62;2.30;;;21.70;99.90;;;;;;6723086;88;20309;-80
2022/06/24 16:00:23;;;;;;;2.87;1.80;;;21.70;99.90;;;;;;6742464;88;20201;-80
2022/06/24 16:10:24;;;;;;;3.17;1.60;;;21.30;99.90;;;;;;6724508;88;20239;-80
2022/06/24 16:20:24;;;;;;;1.67;1.10;;;22.50;99.90;;;;;;6721207;88;20185;-80
2022/06/24 16:30:25;;;;;;;2.87;1.25;;;22.60;99.90;;;;;;6722638;88;20193;-77
2022/06/24 16:40:25;;;;;;;1.60;1.12;;;22.20;99.90;;;;;;6690802;85;36376;-81
2022/06/24 16:50:26;;;;;;;2.20;1.50;;;22.60;99.90;;;;;;6686256;88;20256;-78
2022/06/24 17:00:27;;;;;;;3.25;1.50;;;22.60;99.90;;;;;;6684267;88;20211;-78
2022/06/24 17:10:27;;;;;;;2.37;1.60;;;22.20;99.90;;;;;;6681916;88;20194;-77
2022/06/24 17:20:28;;;;;;;8.07;2.75;;;21.00;99.90;;;;;;6676311;89;20200;-77
2022/06/24 17:30:29;;;;;;;3.78;2.55;;;20.60;99.90;;;;;;6680384;89;20252;-79
2022/06/24 17:40:35;;;;;;;3.97;2.80;;;20.40;99.90;;;;;;6684811;89;20659;-80
2022/06/24 17:50:36;;;;;;;4.05;2.92;;;20.70;99.90;;;;;;6683572;89;20757;-80
2022/06/24 18:00:36;;;;;;;4.22;2.70;;;20.80;99.90;;;;;;6685748;89;20202;-81
2022/06/24 18:10:38;;;;;;;5.70;2.92;;;21.00;99.90;;;;;;6698475;88;21041;-80
2022/06/24 18:20:39;;;;;;;4.68;2.75;;;20.80;99.90;;;;;;6680747;89;20198;-80
2022/06/24 18:30:40;;;;;;;5.32;3.00;;;21.30;99.90;;;;;;6679205;89;20199;-81
2022/06/24 18:40:40;;;;;;;4.87;2.90;;;21.30;99.90;;;;;;6682724;89;20958;-84
2022/06/24 18:50:41;;;;;;;5.60;2.97;;;21.40;99.90;;;;;;6680918;89;21153;-82
2022/06/24 19:00:41;;;;;;;3.58;2.50;;;21.30;99.90;;;;;;6681412;89;20206;-81
2022/06/24 19:20:47;;;;;;;2.20;1.62;;;21.20;99.90;;;;;;6726921;88;20181;-80
2022/06/24 19:30:48;;;;;;;2.00;1.50;;;20.90;99.90;;;;;;6675830;89;20195;-80
2022/06/24 19:41:29;;;;;;;1.85;1.20;;;20.50;99.90;;;;;;6660223;89;20247;-80
2022/06/24 19:51:31;;;;;;;2.37;1.20;;;20.20;99.90;;;;;;6659482;89;20169;-80
2022/06/24 20:12:05;;;;;;;2.92;1.37;;;19.80;99.90;;;;;;6694219;89;20203;-80
2022/06/24 20:22:26;;;;;;;3.08;1.08;;;19.80;99.90;;;;;;6693041;88;20189;-80
2022/06/24 20:32:28;;;;;;;1.85;1.10;;;19.70;99.90;;;;;;6652504;88;20191;-80
2022/06/24 20:42:29;;;;;;;2.95;1.17;;;19.50;99.90;;;;;;6696489;88;20176;-82
2022/06/24 20:52:30;;;;;;;2.10;1.20;;;19.40;99.90;;;;;;6696077;88;20222;-82
2022/06/24 21:02:31;;;;;;;1.97;1.10;;;19.30;99.90;;;;;;6695556;88;20189;-81
2022/06/24 21:12:31;;;;;;;4.07;1.30;;;19.30;99.90;;;;;;6691067;88;20221;-79
2022/06/24 21:22:33;;;;;;;2.20;1.20;;;19.00;99.90;;;;;;6695320;89;20209;-82
2022/06/24 21:32:33;;;;;;;3.72;1.42;;;19.00;99.90;;;;;;6694401;89;20319;-79
2022/06/24 21:42:36;;;;;;;2.00;1.30;;;18.80;99.90;;;;;;6681203;89;20218;-79
2022/06/24 21:52:36;;;;;;;3.05;1.35;;;19.00;99.90;;;;;;6681267;89;20305;-80
2022/06/24 22:02:37;;;;;;;2.75;1.60;;;18.80;99.90;;;;;;6680403;89;20198;-79
2022/06/24 22:12:38;;;;;;;3.33;1.55;;;18.80;99.90;;;;;;6676168;89;20205;-80
2022/06/24 22:22:39;;;;;;;3.58;1.40;;;18.50;99.90;;;;;;6677769;89;20682;-79
2022/06/24 22:32:41;;;;;;;2.50;1.40;;;18.50;99.90;;;;;;6674580;89;20199;-80
2022/06/24 22:42:42;;;;;;;3.03;1.87;;;18.40;99.90;;;;;;6673208;89;20988;-79
2022/06/24 22:52:42;;;;;;;4.72;1.60;;;18.30;99.90;;;;;;6677512;89;20214;-80
2022/06/24 23:02:43;;;;;;;2.90;1.75;;;18.30;99.90;;;;;;6677262;89;20211;-79
2022/06/24 23:12:43;;;;;;;4.95;1.55;;;18.20;99.90;;;;;;6677952;89;20215;-79
2022/06/24 23:22:44;;;;;;;3.72;1.83;;;18.30;99.90;;;;;;6674664;89;20624;-79
2022/06/24 23:32:44;;;;;;;4.70;1.90;;;18.10;99.90;;;;;;6677758;89;20294;-80
2022/06/24 23:42:45;;;;;;;4.32;1.98;;;18.00;99.90;;;;;;6672033;89;20758;-79
2022/06/24 23:52:45;;;;;;;5.05;2.03;;;18.00;99.90;;;;;;6674375;89;20210;-79
